Time;durP1;ratioP1;P1;durP2;ratioP2;P2;SDS_P1;SDS_P2;PMS_P1;PMS_P2;Temp;Humidity;BMP_temperature;BMP_pressure;BME280_temperature;BME280_humidity;BME280_pressure;Samples;Min_cycle;Max_cycle;Signal;HPM_P1;HPM_P2
2023/03/25 00:01:18;;;;;;;6.50;2.07;;;13.00;77.90;;;;;;5013778;28;20504;-84
2023/03/25 00:03:49;;;;;;;4.30;1.90;;;13.00;77.90;;;;;;5021819;28;20769;-84
2023/03/25 00:06:18;;;;;;;7.33;2.10;;;13.00;78.00;;;;;;5015791;28;20446;-83
2023/03/25 00:08:46;;;;;;;6.30;2.20;;;13.00;77.90;;;;;;5012254;28;20518;-85
2023/03/25 00:11:14;;;;;;;4.97;2.33;;;13.00;78.00;;;;;;5013781;28;20442;-83
2023/03/25 00:13:43;;;;;;;8.63;2.13;;;13.00;78.00;;;;;;5012310;28;20507;-84
2023/03/25 00:16:11;;;;;;;4.73;2.10;;;13.00;78.00;;;;;;5018319;28;20884;-84
2023/03/25 00:18:40;;;;;;;13.47;2.70;;;13.00;78.00;;;;;;5017227;28;21263;-83
2023/03/25 00:21:10;;;;;;;6.00;2.20;;;13.00;77.90;;;;;;5016123;28;21106;-84
2023/03/25 00:23:39;;;;;;;4.83;1.83;;;13.00;78.00;;;;;;5016484;28;20478;-83
2023/03/25 00:26:08;;;;;;;6.03;1.90;;;13.00;77.90;;;;;;5009614;28;20690;-85
2023/03/25 00:28:42;;;;;;;5.23;1.50;;;13.00;77.80;;;;;;5017134;28;20519;-83
2023/03/25 00:31:13;;;;;;;6.33;2.17;;;13.00;77.70;;;;;;5018799;28;20474;-83
2023/03/25 00:33:42;;;;;;;4.10;1.53;;;12.90;77.70;;;;;;5001313;28;21076;-84
2023/03/25 00:36:13;;;;;;;5.10;1.77;;;12.90;77.70;;;;;;5015449;28;20454;-84
2023/03/25 00:38:42;;;;;;;4.20;1.40;;;12.90;77.80;;;;;;5016991;28;20458;-85
2023/03/25 00:41:13;;;;;;;4.43;1.20;;;12.90;77.60;;;;;;5019809;28;20874;-84
2023/03/25 00:43:41;;;;;;;4.03;1.30;;;12.90;77.50;;;;;;5018896;28;20478;-85
2023/03/25 00:46:09;;;;;;;6.77;1.97;;;12.80;77.50;;;;;;5018624;28;20962;-83
2023/03/25 00:48:38;;;;;;;4.60;1.43;;;12.80;77.50;;;;;;5018606;28;20476;-83
2023/03/25 00:51:08;;;;;;;4.80;1.80;;;12.70;77.50;;;;;;5020000;28;20891;-83
2023/03/25 00:53:46;;;;;;;4.13;1.37;;;12.70;77.50;;;;;;5015438;28;20482;-83
2023/03/25 00:56:15;;;;;;;4.53;1.30;;;12.70;77.30;;;;;;5015980;28;20452;-83
2023/03/25 00:58:43;;;;;;;4.17;1.63;;;12.60;77.30;;;;;;5016793;28;20462;-83
2023/03/25 01:01:12;;;;;;;3.90;1.60;;;12.60;77.40;;;;;;5014217;28;20837;-86
2023/03/25 01:03:42;;;;;;;6.87;1.83;;;12.60;77.40;;;;;;5015286;28;20549;-83
2023/03/25 01:06:13;;;;;;;6.47;1.53;;;12.60;77.40;;;;;;5002287;28;20460;-83
2023/03/25 01:08:42;;;;;;;5.80;1.70;;;12.60;77.50;;;;;;5019170;28;20467;-84
2023/03/25 01:11:18;;;;;;;5.27;1.40;;;12.60;77.50;;;;;;5017984;28;21276;-84
2023/03/25 01:13:47;;;;;;;5.70;2.10;;;12.60;77.50;;;;;;5021287;28;20483;-84
2023/03/25 01:16:15;;;;;;;5.43;1.80;;;12.60;77.40;;;;;;5018310;28;20576;-83
2023/03/25 01:18:44;;;;;;;4.50;1.63;;;12.50;77.40;;;;;;5013306;28;20465;-85
2023/03/25 01:21:14;;;;;;;5.00;1.60;;;12.50;77.20;;;;;;5014417;28;20849;-84
2023/03/25 01:23:42;;;;;;;5.00;1.70;;;12.50;77.20;;;;;;5016856;28;20932;-84
2023/03/25 01:26:11;;;;;;;3.50;1.00;;;12.40;77.30;;;;;;5000739;28;20512;-84
2023/03/25 01:28:40;;;;;;;7.00;1.20;;;12.40;77.10;;;;;;5015894;28;20451;-84
2023/03/25 01:31:11;;;;;;;5.63;1.10;;;12.40;76.90;;;;;;5017598;28;20623;-84
2023/03/25 01:33:39;;;;;;;6.30;1.30;;;12.40;76.80;;;;;;5012164;28;20483;-84
2023/03/25 01:36:11;;;;;;;6.10;1.47;;;12.30;76.90;;;;;;5019845;28;20477;-85
2023/03/25 01:38:42;;;;;;;3.80;1.40;;;12.30;76.80;;;;;;5015246;28;20785;-83
2023/03/25 01:41:10;;;;;;;4.90;1.40;;;12.30;76.60;;;;;;5017549;28;20499;-85
2023/03/25 01:43:38;;;;;;;7.67;1.07;;;12.30;76.60;;;;;;5014569;28;20539;-84
2023/03/25 01:46:08;;;;;;;4.13;1.20;;;12.20;76.60;;;;;;5016644;28;20456;-84
2023/03/25 01:48:39;;;;;;;4.90;1.27;;;12.20;76.50;;;;;;5014531;28;20467;-84
2023/03/25 01:51:13;;;;;;;5.83;1.10;;;12.10;76.70;;;;;;5015108;28;20503;-85
2023/03/25 01:53:43;;;;;;;4.80;1.27;;;12.10;76.60;;;;;;5019684;28;20820;-85
2023/03/25 01:56:15;;;;;;;4.10;1.30;;;12.10;76.60;;;;;;5008699;28;20517;-85
2023/03/25 01:58:44;;;;;;;3.60;1.20;;;12.10;76.70;;;;;;5018239;28;20464;-85
2023/03/25 02:01:13;;;;;;;3.83;1.10;;;12.10;76.50;;;;;;5008764;28;20490;-85
2023/03/25 02:03:44;;;;;;;5.20;1.30;;;12.10;76.40;;;;;;5013900;28;20518;-85
2023/03/25 02:06:19;;;;;;;5.00;1.07;;;12.10;76.40;;;;;;5014909;28;20503;-84
2023/03/25 02:08:49;;;;;;;6.07;1.27;;;12.10;76.50;;;;;;4999702;28;20608;-85
2023/03/25 02:11:17;;;;;;;7.93;1.40;;;12.10;76.40;;;;;;5009035;28;20467;-84
2023/03/25 02:13:46;;;;;;;6.70;1.40;;;12.10;76.30;;;;;;5015630;28;20482;-84
2023/03/25 02:16:26;;;;;;;6.53;1.80;;;12.10;76.20;;;;;;5011336;28;20468;-84
2023/03/25 02:19:08;;;;;;;8.03;1.50;;;12.00;76.10;;;;;;5013863;28;20507;-83
2023/03/25 02:22:26;;;;;;;4.13;1.27;;;12.00;76.20;;;;;;5013110;28;20443;-83
2023/03/25 02:25:34;;;;;;;5.73;1.20;;;12.10;76.10;;;;;;5011907;28;20676;-83
2023/03/25 02:28:11;;;;;;;7.10;1.10;;;12.10;76.10;;;;;;4992842;28;20482;-85
2023/03/25 02:31:14;;;;;;;5.70;1.13;;;12.10;76.10;;;;;;5011426;28;20480;-84
2023/03/25 02:34:34;;;;;;;5.40;1.17;;;12.10;76.00;;;;;;4996034;28;20478;-85
2023/03/25 02:37:29;;;;;;;5.60;1.50;;;12.10;76.00;;;;;;4990209;28;20873;-83
2023/03/25 02:40:05;;;;;;;5.17;1.50;;;12.10;76.00;;;;;;5017443;28;20499;-83
2023/03/25 02:42:39;;;;;;;5.70;1.30;;;12.10;75.90;;;;;;4996883;28;20501;-83
2023/03/25 02:45:12;;;;;;;5.50;1.40;;;12.10;76.00;;;;;;5015917;28;20454;-84
2023/03/25 02:47:44;;;;;;;8.27;1.70;;;12.10;76.00;;;;;;5013238;28;20458;-85
2023/03/25 02:50:17;;;;;;;5.17;1.37;;;12.20;75.80;;;;;;5015126;28;20465;-83
2023/03/25 02:52:49;;;;;;;4.40;0.93;;;12.20;75.80;;;;;;5014205;28;20533;-83
2023/03/25 02:55:24;;;;;;;4.00;1.00;;;12.20;75.60;;;;;;5011105;28;20492;-84
2023/03/25 02:57:56;;;;;;;7.40;1.37;;;12.10;75.60;;;;;;5018100;28;20454;-84
2023/03/25 03:00:27;;;;;;;4.70;1.20;;;12.10;75.70;;;;;;5016115;28;20560;-85
2023/03/25 03:02:58;;;;;;;4.40;0.90;;;12.10;76.00;;;;;;5014943;28;20967;-85
2023/03/25 03:05:30;;;;;;;5.73;1.30;;;12.00;76.00;;;;;;5015832;28;20471;-84
2023/03/25 03:08:19;;;;;;;5.03;0.80;;;12.00;76.20;;;;;;5012247;28;20474;-84
2023/03/25 03:11:00;;;;;;;3.43;0.80;;;11.90;75.90;;;;;;5014811;28;20711;-83
2023/03/25 03:13:39;;;;;;;5.70;0.90;;;11.80;75.80;;;;;;5014754;28;20495;-84
2023/03/25 03:16:14;;;;;;;3.80;0.70;;;11.70;75.80;;;;;;5010425;28;20468;-84
2023/03/25 03:18:50;;;;;;;2.90;0.50;;;11.70;75.90;;;;;;4992986;28;20535;-85
2023/03/25 03:21:22;;;;;;;3.50;0.73;;;11.50;76.00;;;;;;5012121;28;20471;-86
2023/03/25 03:23:57;;;;;;;3.00;0.67;;;11.50;76.10;;;;;;5012955;28;20459;-83
2023/03/25 03:26:36;;;;;;;3.80;0.80;;;11.50;76.20;;;;;;4996291;28;20459;-86
2023/03/25 03:29:11;;;;;;;4.60;0.70;;;11.50;76.20;;;;;;5008802;28;20478;-83
2023/03/25 03:31:46;;;;;;;3.43;0.83;;;11.50;76.20;;;;;;5008926;28;20504;-84
2023/03/25 03:34:42;;;;;;;3.73;0.70;;;11.50;76.20;;;;;;5013866;28;20480;-83
2023/03/25 03:37:13;;;;;;;4.97;0.90;;;11.40;76.20;;;;;;5011115;28;20466;-85
2023/03/25 03:39:43;;;;;;;3.73;0.60;;;11.40;76.30;;;;;;5014285;28;20540;-88
2023/03/25 03:42:17;;;;;;;3.20;0.93;;;11.40;76.30;;;;;;5008707;28;20548;-84
2023/03/25 03:44:52;;;;;;;2.60;0.53;;;11.40;76.30;;;;;;5018709;28;20574;-88
2023/03/25 03:47:25;;;;;;;3.73;0.60;;;11.40;76.20;;;;;;5011081;28;20507;-85
2023/03/25 03:49:56;;;;;;;3.20;0.80;;;11.30;76.10;;;;;;5017322;28;20546;-85
2023/03/25 03:52:28;;;;;;;3.80;0.67;;;11.30;76.00;;;;;;5016767;28;20464;-85
2023/03/25 03:55:01;;;;;;;3.27;0.70;;;11.30;76.10;;;;;;5013894;28;20478;-87
2023/03/25 03:57:34;;;;;;;2.70;0.60;;;11.30;76.00;;;;;;5014868;28;20478;-85
2023/03/25 04:00:08;;;;;;;3.63;1.07;;;11.30;76.00;;;;;;5019430;28;20458;-87
2023/03/25 04:02:43;;;;;;;5.13;0.70;;;11.20;76.00;;;;;;5003581;28;20548;-87
2023/03/25 04:05:14;;;;;;;3.50;0.80;;;11.20;75.90;;;;;;5020195;28;20472;-85
2023/03/25 04:07:53;;;;;;;3.63;0.90;;;11.10;76.00;;;;;;5021840;28;20983;-85
2023/03/25 04:10:28;;;;;;;7.47;1.07;;;11.10;76.20;;;;;;5024379;28;20451;-85
2023/03/25 04:13:00;;;;;;;4.10;1.13;;;11.10;76.20;;;;;;5025218;28;20549;-88
2023/03/25 04:15:28;;;;;;;4.20;0.90;;;11.10;76.10;;;;;;5023062;28;20496;-85
2023/03/25 04:17:56;;;;;;;5.10;1.10;;;11.10;76.00;;;;;;5012180;28;20556;-85
2023/03/25 04:20:28;;;;;;;4.03;0.70;;;11.10;76.10;;;;;;5015133;28;20461;-87
2023/03/25 04:22:56;;;;;;;10.80;1.50;;;11.20;76.00;;;;;;5022415;28;20457;-86
2023/03/25 04:25:24;;;;;;;5.57;0.90;;;11.10;76.00;;;;;;5021677;28;20491;-86
2023/03/25 04:27:57;;;;;;;3.47;0.83;;;11.20;76.00;;;;;;5008873;28;20466;-87
2023/03/25 04:30:29;;;;;;;3.67;1.03;;;11.20;76.00;;;;;;5010385;28;20484;-87
2023/03/25 04:32:59;;;;;;;4.70;0.97;;;11.20;76.00;;;;;;5019752;28;20469;-84
2023/03/25 04:35:27;;;;;;;8.17;2.07;;;11.10;75.90;;;;;;5015417;28;20485;-87
2023/03/25 04:37:56;;;;;;;5.40;1.60;;;11.10;76.00;;;;;;5009187;28;20501;-83
2023/03/25 04:40:25;;;;;;;4.37;1.30;;;11.10;76.10;;;;;;5016491;28;20497;-83
2023/03/25 04:43:01;;;;;;;6.07;1.33;;;11.10;76.00;;;;;;5030203;28;20464;-87
2023/03/25 04:45:35;;;;;;;5.00;1.43;;;11.10;76.10;;;;;;5022373;28;20477;-84
2023/03/25 04:48:04;;;;;;;5.83;1.10;;;11.10;76.00;;;;;;5017613;28;20513;-86
2023/03/25 04:50:33;;;;;;;5.53;1.13;;;11.10;76.00;;;;;;5026031;28;20453;-85
2023/03/25 04:53:07;;;;;;;8.83;1.50;;;11.10;76.00;;;;;;5021711;28;20510;-86
2023/03/25 04:55:35;;;;;;;5.30;1.20;;;11.20;76.00;;;;;;5015533;28;20476;-84
2023/03/25 04:58:03;;;;;;;5.13;1.20;;;11.20;75.90;;;;;;5019952;28;20443;-86
2023/03/25 05:00:32;;;;;;;5.10;1.20;;;11.20;75.90;;;;;;5018319;28;20465;-87
2023/03/25 05:03:00;;;;;;;6.53;1.33;;;11.20;75.70;;;;;;5026401;28;20721;-84
2023/03/25 05:05:28;;;;;;;8.13;1.27;;;11.20;75.70;;;;;;5001869;28;20938;-84
2023/03/25 05:07:57;;;;;;;4.43;1.10;;;11.20;75.60;;;;;;5024052;28;20436;-83
2023/03/25 05:10:28;;;;;;;5.57;1.10;;;11.20;75.60;;;;;;5017323;28;21008;-85
2023/03/25 05:12:58;;;;;;;7.93;1.50;;;11.20;75.50;;;;;;5023829;28;20759;-83
2023/03/25 05:15:27;;;;;;;5.20;1.10;;;11.10;75.30;;;;;;5023757;28;20469;-83
2023/03/25 05:17:56;;;;;;;5.73;1.60;;;11.10;75.30;;;;;;5020822;28;20497;-83
2023/03/25 05:20:24;;;;;;;5.07;1.00;;;11.10;75.40;;;;;;5017578;28;20496;-86
2023/03/25 05:22:56;;;;;;;5.80;1.13;;;11.10;75.40;;;;;;5016879;28;20626;-85
2023/03/25 05:25:24;;;;;;;5.57;1.20;;;11.00;75.30;;;;;;5015868;28;20513;-84
2023/03/25 05:27:53;;;;;;;5.87;1.20;;;11.00;75.30;;;;;;5021251;28;20996;-87
2023/03/25 05:30:21;;;;;;;4.00;1.00;;;11.10;75.30;;;;;;5020316;28;20656;-87
2023/03/25 05:32:49;;;;;;;7.77;1.40;;;11.10;75.10;;;;;;5030280;28;20472;-83
2023/03/25 05:35:25;;;;;;;5.57;1.20;;;11.10;75.20;;;;;;5028796;28;20475;-86
2023/03/25 05:37:54;;;;;;;6.93;1.00;;;11.10;75.00;;;;;;5006208;28;20460;-84
2023/03/25 05:40:22;;;;;;;7.40;1.40;;;11.00;75.00;;;;;;5022297;28;20550;-85
2023/03/25 05:42:53;;;;;;;5.40;1.17;;;11.00;75.00;;;;;;5029526;28;20630;-84
2023/03/25 05:45:22;;;;;;;5.33;1.20;;;10.90;75.10;;;;;;5019406;28;20724;-86
2023/03/25 05:47:52;;;;;;;5.20;1.07;;;11.00;75.10;;;;;;5029851;28;20444;-84
2023/03/25 05:50:21;;;;;;;4.17;1.17;;;11.10;75.00;;;;;;5021850;28;20489;-84
2023/03/25 05:52:51;;;;;;;6.43;1.20;;;11.00;75.00;;;;;;5010527;28;20448;-84
2023/03/25 05:55:22;;;;;;;5.53;1.50;;;11.10;75.00;;;;;;5021211;28;20574;-87
2023/03/25 05:57:50;;;;;;;13.53;1.60;;;11.10;74.90;;;;;;5003872;28;20482;-84
2023/03/25 06:00:26;;;;;;;3.37;0.90;;;11.10;74.90;;;;;;5015972;28;21098;-87
2023/03/25 06:02:55;;;;;;;5.73;1.10;;;11.10;75.00;;;;;;5025931;28;21249;-84
2023/03/25 06:05:23;;;;;;;8.33;1.07;;;11.10;75.00;;;;;;5017416;28;20465;-87
2023/03/25 06:07:57;;;;;;;4.43;1.23;;;11.20;75.00;;;;;;5011410;28;20465;-83
2023/03/25 06:10:25;;;;;;;3.60;1.03;;;11.20;74.90;;;;;;5024124;28;20458;-87
2023/03/25 06:12:53;;;;;;;6.90;2.03;;;11.20;74.90;;;;;;5025446;28;20510;-84
2023/03/25 06:15:27;;;;;;;5.53;1.17;;;11.30;74.80;;;;;;5021347;28;20471;-85
2023/03/25 06:17:55;;;;;;;4.73;1.10;;;11.20;74.70;;;;;;5020150;28;20705;-85
2023/03/25 06:20:30;;;;;;;5.10;1.20;;;11.20;74.80;;;;;;5025701;28;20476;-83
2023/03/25 06:22:59;;;;;;;6.83;1.47;;;11.30;74.70;;;;;;5020723;28;20488;-84
2023/03/25 06:25:29;;;;;;;5.00;1.30;;;11.20;74.70;;;;;;5017206;28;20457;-86
2023/03/25 06:28:01;;;;;;;5.60;1.20;;;11.20;74.80;;;;;;5002849;28;20456;-88
2023/03/25 06:30:29;;;;;;;4.20;1.10;;;11.20;74.90;;;;;;5001608;28;21045;-84
2023/03/25 06:33:01;;;;;;;5.17;1.30;;;11.20;75.00;;;;;;5025769;28;20534;-83
2023/03/25 06:35:30;;;;;;;8.00;1.80;;;11.20;75.00;;;;;;5015971;28;20462;-86
2023/03/25 06:38:00;;;;;;;8.20;1.40;;;11.20;75.00;;;;;;5018574;28;20472;-85
2023/03/25 06:40:36;;;;;;;4.43;1.40;;;11.20;75.00;;;;;;5012946;28;20454;-86
2023/03/25 06:43:05;;;;;;;7.00;1.50;;;11.20;75.10;;;;;;5023287;28;20911;-85
2023/03/25 06:46:05;;;;;;;5.50;1.13;;;11.20;75.10;;;;;;5022854;28;20476;-85
2023/03/25 06:48:53;;;;;;;4.97;1.20;;;11.20;75.30;;;;;;5027112;28;20492;-84
2023/03/25 06:51:22;;;;;;;5.73;1.07;;;11.30;75.30;;;;;;5026837;28;20850;-85
2023/03/25 06:53:52;;;;;;;4.00;0.97;;;11.30;75.30;;;;;;5026915;28;20453;-83
2023/03/25 06:56:20;;;;;;;5.63;1.43;;;11.30;75.30;;;;;;5017946;28;20472;-86
2023/03/25 06:58:48;;;;;;;3.67;0.90;;;11.40;75.40;;;;;;5019690;28;20510;-85
2023/03/25 07:01:21;;;;;;;4.60;1.57;;;11.40;75.30;;;;;;5018575;28;20478;-84
2023/03/25 07:03:49;;;;;;;5.77;1.80;;;11.50;75.30;;;;;;5023126;28;20471;-87
2023/03/25 07:06:19;;;;;;;12.17;2.00;;;11.50;75.30;;;;;;5019068;28;20595;-85
2023/03/25 07:08:47;;;;;;;3.40;0.80;;;11.60;75.30;;;;;;5014235;28;20462;-83
2023/03/25 07:11:19;;;;;;;6.27;1.60;;;11.60;75.30;;;;;;5004645;28;20462;-85
2023/03/25 07:13:47;;;;;;;4.20;1.03;;;11.70;75.20;;;;;;5007403;28;20868;-85
2023/03/25 07:16:15;;;;;;;7.90;1.93;;;11.70;74.90;;;;;;5023961;28;20485;-85
2023/03/25 07:18:43;;;;;;;6.93;1.40;;;11.70;74.70;;;;;;5028647;28;20441;-87
2023/03/25 07:21:11;;;;;;;10.30;1.73;;;11.60;74.60;;;;;;5028681;28;20462;-87
2023/03/25 07:23:39;;;;;;;6.10;1.50;;;11.60;74.70;;;;;;5020738;28;20459;-84
2023/03/25 07:26:07;;;;;;;4.93;1.80;;;11.50;74.70;;;;;;5016124;28;20455;-85
2023/03/25 07:28:37;;;;;;;4.07;1.30;;;11.50;74.90;;;;;;5029920;28;20862;-87
2023/03/25 07:31:07;;;;;;;6.93;1.90;;;11.50;74.80;;;;;;5020823;28;20501;-87
2023/03/25 07:33:36;;;;;;;8.10;1.70;;;11.50;74.70;;;;;;5021559;28;20452;-85
2023/03/25 07:36:13;;;;;;;6.20;1.37;;;11.50;74.80;;;;;;5010043;28;20458;-86
2023/03/25 07:38:43;;;;;;;9.00;1.90;;;11.50;74.70;;;;;;5023251;28;20494;-87
2023/03/25 07:41:14;;;;;;;10.13;1.40;;;11.50;74.90;;;;;;5005373;28;20450;-85
2023/03/25 07:44:09;;;;;;;11.47;1.93;;;11.50;75.10;;;;;;5009365;28;20542;-84
2023/03/25 07:46:38;;;;;;;7.43;1.63;;;11.60;75.20;;;;;;5018884;28;20454;-86
2023/03/25 07:49:13;;;;;;;11.23;2.07;;;11.60;75.20;;;;;;5023517;28;20444;-87
2023/03/25 07:51:41;;;;;;;11.43;1.67;;;11.80;74.90;;;;;;5019916;28;20518;-84
2023/03/25 07:54:09;;;;;;;8.77;1.50;;;11.80;74.80;;;;;;5013689;28;20532;-85
2023/03/25 07:56:37;;;;;;;10.17;1.70;;;11.70;75.00;;;;;;5005196;28;20474;-85
2023/03/25 07:59:05;;;;;;;8.33;1.60;;;11.80;75.00;;;;;;5010683;28;20457;-86
2023/03/25 08:01:34;;;;;;;7.13;2.20;;;11.80;75.00;;;;;;5029121;28;20453;-84
2023/03/25 08:04:02;;;;;;;7.60;1.70;;;11.80;74.90;;;;;;5026272;28;20729;-84
2023/03/25 08:06:31;;;;;;;7.60;1.60;;;11.90;74.90;;;;;;5014539;28;20478;-86
2023/03/25 08:08:58;;;;;;;7.63;1.77;;;11.90;74.70;;;;;;5022359;28;20939;-85
2023/03/25 08:11:26;;;;;;;9.90;1.87;;;11.90;74.80;;;;;;5016048;28;20465;-83
2023/03/25 08:13:54;;;;;;;8.13;1.60;;;11.90;74.70;;;;;;5029331;28;20450;-86
2023/03/25 08:16:22;;;;;;;7.10;2.00;;;11.90;74.70;;;;;;5017814;28;20473;-84
2023/03/25 08:18:52;;;;;;;11.17;2.33;;;11.90;74.70;;;;;;5020720;28;20488;-87
2023/03/25 08:21:23;;;;;;;7.40;2.03;;;12.00;74.50;;;;;;5022728;28;20473;-86
2023/03/25 08:23:53;;;;;;;7.40;1.83;;;12.00;74.30;;;;;;5008758;28;20452;-85
2023/03/25 08:26:21;;;;;;;7.40;1.93;;;12.00;74.60;;;;;;5015625;28;20466;-84
2023/03/25 08:28:49;;;;;;;10.23;2.17;;;12.10;74.60;;;;;;5023293;28;20462;-85
2023/03/25 08:31:19;;;;;;;11.50;2.00;;;12.20;74.50;;;;;;4988563;28;20536;-85
2023/03/25 08:33:46;;;;;;;12.80;2.50;;;12.20;74.40;;;;;;4994405;28;20460;-85
2023/03/25 08:36:18;;;;;;;13.27;2.60;;;12.20;74.30;;;;;;4999975;28;20460;-84
2023/03/25 08:38:46;;;;;;;7.70;2.10;;;12.30;74.30;;;;;;4997588;28;20494;-83
2023/03/25 08:41:15;;;;;;;10.90;2.10;;;12.30;74.40;;;;;;4986540;28;20451;-85
2023/03/25 08:43:42;;;;;;;10.23;1.93;;;12.40;74.10;;;;;;4996832;28;20519;-83
2023/03/25 08:46:12;;;;;;;15.33;2.73;;;12.40;74.00;;;;;;4996717;28;20453;-83
2023/03/25 08:48:40;;;;;;;9.90;1.80;;;12.50;73.60;;;;;;4996446;28;20478;-82
2023/03/25 08:51:08;;;;;;;11.50;2.20;;;12.50;73.30;;;;;;4995812;28;20692;-85
2023/03/25 08:53:37;;;;;;;11.07;2.20;;;12.50;73.40;;;;;;4993985;28;20466;-84
2023/03/25 08:56:07;;;;;;;9.27;1.93;;;12.50;73.40;;;;;;4998618;28;20472;-83
2023/03/25 08:58:38;;;;;;;8.80;1.90;;;12.50;73.30;;;;;;5000745;28;20477;-83
2023/03/25 09:01:06;;;;;;;8.63;2.00;;;12.50;73.10;;;;;;4993686;28;20477;-84
2023/03/25 09:03:36;;;;;;;10.37;2.50;;;12.50;72.90;;;;;;4992949;28;20464;-83
2023/03/25 09:06:05;;;;;;;6.80;1.67;;;12.50;72.90;;;;;;4997939;28;20450;-84
2023/03/25 09:08:33;;;;;;;10.60;2.67;;;12.40;72.80;;;;;;4998064;28;20899;-85
2023/03/25 09:11:04;;;;;;;8.73;1.97;;;12.60;72.80;;;;;;5001664;28;20651;-85
2023/03/25 09:13:32;;;;;;;14.07;2.00;;;12.60;72.50;;;;;;4999915;28;20456;-84
2023/03/25 09:15:59;;;;;;;13.87;2.30;;;12.60;72.40;;;;;;4997363;28;20507;-85
2023/03/25 09:18:30;;;;;;;9.17;1.93;;;12.50;72.10;;;;;;4995425;28;20928;-82
2023/03/25 09:20:59;;;;;;;8.53;1.63;;;12.50;72.00;;;;;;4997464;28;20552;-83
2023/03/25 09:23:27;;;;;;;9.30;2.53;;;12.50;72.00;;;;;;4997871;28;20456;-82
2023/03/25 09:26:00;;;;;;;12.07;2.10;;;12.50;71.90;;;;;;4997837;28;20450;-83
2023/03/25 09:28:30;;;;;;;9.97;2.13;;;12.60;71.90;;;;;;4993962;28;20467;-83
2023/03/25 09:30:58;;;;;;;8.97;1.90;;;12.60;72.00;;;;;;4997757;28;20539;-84
2023/03/25 09:33:26;;;;;;;16.17;1.70;;;12.70;72.00;;;;;;4997252;28;20542;-83
2023/03/25 09:35:55;;;;;;;10.70;2.00;;;12.70;71.80;;;;;;4995266;28;20633;-84
2023/03/25 09:38:23;;;;;;;7.40;1.40;;;12.80;71.70;;;;;;4989187;28;20484;-84
2023/03/25 09:40:51;;;;;;;11.10;1.83;;;12.80;71.70;;;;;;4995885;28;20441;-83
2023/03/25 09:43:33;;;;;;;6.60;1.83;;;12.80;71.60;;;;;;4994536;28;20461;-85
2023/03/25 09:46:02;;;;;;;5.47;1.43;;;12.80;71.80;;;;;;4996814;28;20464;-83
2023/03/25 09:48:36;;;;;;;9.60;1.40;;;12.90;71.60;;;;;;4993004;28;20534;-82
2023/03/25 09:51:06;;;;;;;11.97;1.27;;;13.00;71.60;;;;;;4997532;28;20440;-86
2023/03/25 09:53:38;;;;;;;7.07;1.77;;;13.00;71.60;;;;;;4992160;28;20515;-84
2023/03/25 09:56:10;;;;;;;10.40;2.20;;;13.00;71.60;;;;;;5001521;28;20488;-84
2023/03/25 09:58:44;;;;;;;8.70;1.87;;;13.00;71.50;;;;;;4991381;28;20475;-83
2023/03/25 10:01:27;;;;;;;5.47;1.20;;;12.90;71.60;;;;;;4995778;28;20877;-84
2023/03/25 10:04:28;;;;;;;9.00;1.67;;;13.00;71.70;;;;;;4994048;28;20543;-84
2023/03/25 10:07:04;;;;;;;8.53;1.57;;;13.00;71.60;;;;;;4985307;28;20474;-83
2023/03/25 10:09:43;;;;;;;5.73;1.57;;;13.00;71.40;;;;;;4995691;28;20515;-83
2023/03/25 10:12:26;;;;;;;11.23;1.73;;;13.00;71.30;;;;;;4999373;28;20972;-84
2023/03/25 10:15:09;;;;;;;5.87;1.27;;;13.00;71.10;;;;;;4996467;28;20500;-84
2023/03/25 10:17:47;;;;;;;6.10;1.33;;;12.90;71.20;;;;;;4998010;28;20516;-83
2023/03/25 10:20:18;;;;;;;5.43;1.70;;;12.90;71.30;;;;;;4996189;28;20588;-83
2023/03/25 10:23:01;;;;;;;8.30;1.43;;;12.80;71.50;;;;;;4996586;28;21168;-83
2023/03/25 10:25:34;;;;;;;7.37;1.50;;;12.80;71.50;;;;;;4995971;28;20540;-83
2023/03/25 10:28:05;;;;;;;7.80;2.03;;;12.80;71.70;;;;;;4999324;28;20462;-84
2023/03/25 10:30:40;;;;;;;11.40;2.20;;;12.70;71.90;;;;;;4988188;28;21319;-83
2023/03/25 10:33:17;;;;;;;7.80;1.57;;;12.80;71.90;;;;;;4990461;28;20463;-85
2023/03/25 10:35:47;;;;;;;10.40;1.70;;;12.80;72.00;;;;;;4995656;28;21101;-85
2023/03/25 10:38:19;;;;;;;7.17;1.37;;;12.70;72.10;;;;;;4992150;28;21054;-83
2023/03/25 10:40:50;;;;;;;8.03;1.50;;;12.80;72.20;;;;;;4980326;28;20468;-84
2023/03/25 10:43:27;;;;;;;4.77;1.03;;;12.80;72.10;;;;;;4993104;28;20456;-83
2023/03/25 10:46:00;;;;;;;5.43;1.07;;;12.80;71.70;;;;;;4996580;28;20433;-87
2023/03/25 10:48:30;;;;;;;3.93;1.00;;;12.70;71.80;;;;;;4994035;28;20515;-84
2023/03/25 10:51:03;;;;;;;4.23;1.10;;;12.70;71.80;;;;;;4993973;28;20457;-84
2023/03/25 10:53:31;;;;;;;4.10;0.87;;;12.70;71.90;;;;;;4994280;28;20473;-83
2023/03/25 10:56:03;;;;;;;4.57;0.83;;;12.70;72.00;;;;;;4997233;28;20460;-83
2023/03/25 10:58:32;;;;;;;5.43;1.20;;;12.70;71.90;;;;;;4997161;28;20744;-85
2023/03/25 11:01:10;;;;;;;5.10;1.07;;;12.70;71.80;;;;;;4996274;28;20510;-84
2023/03/25 11:03:43;;;;;;;6.00;1.13;;;12.80;71.40;;;;;;4990134;28;20473;-83
2023/03/25 11:06:23;;;;;;;7.33;1.37;;;12.80;71.30;;;;;;4998735;28;20440;-84
2023/03/25 11:09:12;;;;;;;5.53;0.87;;;12.80;71.30;;;;;;4994987;28;20467;-84
2023/03/25 11:11:42;;;;;;;7.40;1.13;;;12.80;70.90;;;;;;5002575;28;20570;-85
2023/03/25 11:14:11;;;;;;;4.67;1.20;;;12.80;71.10;;;;;;4988895;28;20508;-84
2023/03/25 11:16:44;;;;;;;8.43;1.03;;;12.80;71.20;;;;;;4984398;28;20587;-84
2023/03/25 11:19:20;;;;;;;6.80;1.07;;;12.90;71.20;;;;;;5000947;28;20495;-84
2023/03/25 11:21:54;;;;;;;4.00;1.33;;;12.90;71.10;;;;;;4995271;28;20448;-82
2023/03/25 11:24:27;;;;;;;7.23;1.20;;;12.90;70.70;;;;;;4988009;28;20474;-83
2023/03/25 11:26:56;;;;;;;6.10;1.10;;;12.80;70.70;;;;;;4991495;28;20449;-85
2023/03/25 11:29:26;;;;;;;7.10;1.20;;;12.80;70.50;;;;;;4978073;28;20484;-83
2023/03/25 11:32:06;;;;;;;5.60;1.20;;;12.60;70.90;;;;;;4976335;28;20477;-84
2023/03/25 11:34:40;;;;;;;6.07;1.43;;;12.50;71.00;;;;;;5011139;28;20730;-83
2023/03/25 11:37:17;;;;;;;6.00;1.50;;;12.50;71.20;;;;;;4978247;28;20470;-83
2023/03/25 11:39:50;;;;;;;6.43;1.20;;;12.50;71.40;;;;;;4996120;28;20495;-84
2023/03/25 11:42:31;;;;;;;6.90;1.27;;;12.40;71.70;;;;;;4992396;28;20465;-83
2023/03/25 11:45:02;;;;;;;9.40;1.67;;;12.40;71.90;;;;;;5014213;28;20464;-84
2023/03/25 11:47:34;;;;;;;6.50;1.67;;;12.40;72.00;;;;;;4997043;28;20453;-84
2023/03/25 11:50:02;;;;;;;11.80;1.47;;;12.40;72.00;;;;;;5000209;28;20461;-86
2023/03/25 11:52:38;;;;;;;6.60;2.07;;;12.40;72.30;;;;;;4982333;28;20516;-83
2023/03/25 11:55:07;;;;;;;8.30;1.50;;;12.50;72.40;;;;;;5000379;28;20466;-86
2023/03/25 11:57:39;;;;;;;10.43;1.50;;;12.50;72.50;;;;;;4986644;28;20740;-82
2023/03/25 12:00:22;;;;;;;8.80;1.80;;;12.60;72.50;;;;;;4995357;28;20489;-87
2023/03/25 12:02:59;;;;;;;8.17;1.30;;;12.60;72.50;;;;;;5004359;28;20454;-85
2023/03/25 12:05:28;;;;;;;6.93;1.80;;;12.60;72.50;;;;;;4987205;28;20525;-83
2023/03/25 12:08:10;;;;;;;11.33;2.10;;;12.50;72.60;;;;;;4986559;28;20469;-85
2023/03/25 12:10:49;;;;;;;6.67;2.00;;;12.50;72.80;;;;;;5007718;28;20457;-86
2023/03/25 12:13:28;;;;;;;10.67;2.53;;;12.50;72.80;;;;;;5015860;28;20460;-83
2023/03/25 12:16:08;;;;;;;8.30;1.63;;;12.40;72.90;;;;;;4983556;28;20510;-82
2023/03/25 12:18:52;;;;;;;5.57;1.70;;;12.40;72.90;;;;;;5017972;28;20797;-87
2023/03/25 12:21:43;;;;;;;5.43;1.07;;;12.30;73.00;;;;;;4982231;28;20461;-83
2023/03/25 12:24:25;;;;;;;3.53;0.70;;;12.20;73.20;;;;;;4986641;28;20457;-82
2023/03/25 12:27:10;;;;;;;3.57;0.70;;;12.10;73.20;;;;;;4995878;28;20571;-83
2023/03/25 12:29:45;;;;;;;4.90;0.70;;;12.00;73.30;;;;;;5005895;28;20457;-88
2023/03/25 12:32:26;;;;;;;4.03;0.70;;;12.00;73.50;;;;;;4980350;28;20546;-87
2023/03/25 12:35:14;;;;;;;3.53;0.73;;;12.00;73.70;;;;;;4989854;28;21019;-87
2023/03/25 12:38:05;;;;;;;6.70;0.87;;;11.90;74.10;;;;;;5018923;28;20468;-84
2023/03/25 12:40:48;;;;;;;5.60;0.90;;;11.90;74.30;;;;;;5001074;28;20478;-87
2023/03/25 12:43:29;;;;;;;5.00;1.10;;;12.00;74.40;;;;;;5001517;28;20461;-83
2023/03/25 12:46:14;;;;;;;5.53;1.20;;;12.00;74.70;;;;;;5020464;28;20453;-85
2023/03/25 12:49:01;;;;;;;4.00;0.97;;;12.10;74.80;;;;;;4986280;28;20507;-86
2023/03/25 12:51:42;;;;;;;4.93;1.10;;;12.20;74.90;;;;;;4987939;28;20460;-87
2023/03/25 12:54:30;;;;;;;3.60;1.00;;;12.30;75.10;;;;;;5005594;28;20465;-85
2023/03/25 12:57:12;;;;;;;7.20;1.57;;;12.40;75.10;;;;;;5010014;28;20454;-84
2023/03/25 13:00:13;;;;;;;3.53;1.00;;;12.40;75.20;;;;;;5003990;28;20475;-85
2023/03/25 13:03:08;;;;;;;3.27;0.93;;;12.40;75.40;;;;;;4980054;28;20482;-82
2023/03/25 13:05:40;;;;;;;3.40;0.80;;;12.30;75.30;;;;;;4987283;28;20472;-84
2023/03/25 13:08:16;;;;;;;5.67;0.93;;;12.30;75.40;;;;;;4992637;28;20479;-83
2023/03/25 13:10:47;;;;;;;5.37;0.83;;;12.30;75.30;;;;;;5013122;28;20942;-85
2023/03/25 13:13:22;;;;;;;4.43;0.90;;;12.40;75.20;;;;;;5014150;28;20459;-83
2023/03/25 13:16:02;;;;;;;6.20;1.23;;;12.30;75.10;;;;;;5001104;28;20543;-84